Kenai, AK

1:48 AM AKDT on September 23, 2014 (GMT -0800)
Soldotna | Change Station
CLOSE
Current Station
Airport
Location: Soldotna,
Elevation: 112 ft
Nearby Weather Stations

Elev 112 ft 60.48 °N, 151.03 °W | Updated 12 minutes ago

Clear
Clear
30 °F
Feels Like 30 °F
N
0
Wind Variable Wind from North

Today
High -- | Low -- °F
--% Chance of Precip.
Yesterday
High -- | Low -- °F
Precip. -- in
7:51 AM 8:00 PM
Waning Crescent, 1% visible
Pressure 29.84 in
Visibility 10.0 miles
Clouds Clear
Dew Point 27 °F
Humidity 86%
Rainfall 0.00 in
Snow Depth Not available.
UV 0 out of 12
Pollen Not available.
Air Quality Not available.
Flu Activity Not available.
METAR PASX 230936Z AUTO 00000KT 10SM CLR M01/M03 A2984 RMK AO1

More Conditions Fewer Conditions

Pressure 29.84 in
Visibility 10.0 miles
Clouds Clear
Dew Point 27 °F
Humidity 86%
Rainfall 0.00 in
Snow Depth Not available.
UV 0 out of 12
Pollen Not available.
Air Quality Not available.
Flu Activity Not available.
METAR PASX 230936Z AUTO 00000KT 10SM CLR M01/M03 A2984 RMK AO1

More Conditions Fewer Conditions

10-Day Weather Forecast

Almanac

Astronomy

Sep. 23, 2014 Rise Set
Actual Time 7:51 AM AKDT 8:00 PM AKDT
Civil Twilight 7:09 AM AKDT 8:43 PM AKDT
Nautical Twilight 6:18 AM AKDT 9:33 PM AKDT
Astronomical Twilight 5:23 AM AKDT 10:28 PM AKDT
Moon 7:26 AM AKDT 7:38 PM AKDT
Length of Visible Light 13h 33m
Length of Day
12h 08m
Tomorrow will be 5m 31s shorter.
Waning Crescent, 1% of the Moon is Illuminated
Today
Waning Crescent
Sep 24
New
Oct 1
First Quarter
Oct 8
Full
Oct 15
Last Quarter

Today's Extremes

State Highs State Lows

Community

WunderPhotos

Upload Photos

1,755,644 photos uploaded!

Nearby

Snow Depth

Station Depth Elevation
Imnaviat Creek 4 in 3050 ft
Munson Ridge 1 in 3100 ft
Fort Yukon 0 in 430 ft
Summit Creek 0 in 1400 ft
Coldfoot 0 in 1040 ft

Earthquake Activity

City Distance Mag. Time & Date
No recent earthquake activity has been reported nearby.
Minimum magnitude displayed is 2.5.

Coastal Water Temperatures

Place Temperature
No Stations Reporting

Nearby Weather Stations